Archival Weather

Republic

Farmingdale, New York (KFRG)

Report from: Friday, February 23, 2024 4:53 PM EST
Current time: Monday, June 24, 2024 7:24 AM EDT

Current weather – Weather history – Daily summaries
Weather forecast

Temperature6.7°C (44.1°F)
Wind chill4.9°C (40.7°F)
Dew point4.4°C (39.9°F)
Winds 5 kts (2.6 m/s, 5.8 mph) North-Northeast (20°)
Visibility10 mi. (16.1 km)
Clouds Scattered clouds 3,200 ft. (975 m)
Scattered clouds 4,500 ft. (1,372 m)
Ceiling: Overcast 7,000 ft. (2,134 m)
Altimeter29.44 in.Hg (997 mB)
Relative humidity85 %
Density altitude-324 ft. (-99 m)
Sea-level pressure99.7 kPa (997 mB, 29.44 in.Hg)
Remarks Automated weather observing station without precipitation discriminator
Flight conditions Visual Meteorological Conditions
Raw dataKFRG 232153Z 02005KT 10SM SCT032 SCT045 OVC070 07/04 A2944 RMK AO1 SLP971 T00670044
An error has occurred. This application may no longer respond until reloaded. Reload 🗙